sensor_id;sensor_type;location;lat;lon;timestamp;temperature;humidity
11617;DHT22;5864;52.998;9.068;2023-07-31T00:01:56;16.40;99.90
11617;DHT22;5864;52.998;9.068;2023-07-31T00:04:43;16.50;99.90
11617;DHT22;5864;52.998;9.068;2023-07-31T00:07:29;16.40;99.90
11617;DHT22;5864;52.998;9.068;2023-07-31T00:10:15;16.50;99.90
11617;DHT22;5864;52.998;9.068;2023-07-31T00:13:00;16.40;99.90
11617;DHT22;5864;52.998;9.068;2023-07-31T00:15:46;16.40;99.90
11617;DHT22;5864;52.998;9.068;2023-07-31T00:18:31;16.50;99.90
11617;DHT22;5864;52.998;9.068;2023-07-31T00:21:19;16.50;99.90
11617;DHT22;5864;52.998;9.068;2023-07-31T00:24:04;16.40;99.90
11617;DHT22;5864;52.998;9.068;2023-07-31T00:26:49;16.50;99.90
11617;DHT22;5864;52.998;9.068;2023-07-31T00:29:35;16.50;99.90
11617;DHT22;5864;52.998;9.068;2023-07-31T00:32:20;16.40;99.90
11617;DHT22;5864;52.998;9.068;2023-07-31T00:35:07;16.40;99.90
11617;DHT22;5864;52.998;9.068;2023-07-31T00:37:53;16.40;99.90
11617;DHT22;5864;52.998;9.068;2023-07-31T00:40:39;16.40;99.90
11617;DHT22;5864;52.998;9.068;2023-07-31T00:43:25;16.40;99.90
11617;DHT22;5864;52.998;9.068;2023-07-31T00:46:11;16.40;99.90
11617;DHT22;5864;52.998;9.068;2023-07-31T00:48:57;16.40;99.90
11617;DHT22;5864;52.998;9.068;2023-07-31T00:51:42;16.30;99.90
11617;DHT22;5864;52.998;9.068;2023-07-31T00:54:29;16.40;99.90
11617;DHT22;5864;52.998;9.068;2023-07-31T00:57:15;16.40;99.90
11617;DHT22;5864;52.998;9.068;2023-07-31T01:00:01;16.30;99.90
11617;DHT22;5864;52.998;9.068;2023-07-31T01:02:47;16.30;99.90
11617;DHT22;5864;52.998;9.068;2023-07-31T01:05:39;16.40;99.90
11617;DHT22;5864;52.998;9.068;2023-07-31T01:08:34;16.30;99.90
11617;DHT22;5864;52.998;9.068;2023-07-31T01:11:27;16.30;99.90
11617;DHT22;5864;52.998;9.068;2023-07-31T01:14:12;16.30;99.90
11617;DHT22;5864;52.998;9.068;2023-07-31T01:16:58;16.30;99.90
11617;DHT22;5864;52.998;9.068;2023-07-31T01:19:44;16.30;99.90
11617;DHT22;5864;52.998;9.068;2023-07-31T01:22:41;16.20;99.90
11617;DHT22;5864;52.998;9.068;2023-07-31T01:28:50;16.30;99.90
11617;DHT22;5864;52.998;9.068;2023-07-31T01:31:39;16.30;99.90
11617;DHT22;5864;52.998;9.068;2023-07-31T01:34:26;16.30;99.90
11617;DHT22;5864;52.998;9.068;2023-07-31T01:37:12;16.30;99.90
11617;DHT22;5864;52.998;9.068;2023-07-31T01:39:58;16.30;99.90
11617;DHT22;5864;52.998;9.068;2023-07-31T01:42:44;16.30;99.90
11617;DHT22;5864;52.998;9.068;2023-07-31T01:45:31;16.30;99.90
11617;DHT22;5864;52.998;9.068;2023-07-31T01:48:17;16.30;99.90
11617;DHT22;5864;52.998;9.068;2023-07-31T01:51:02;16.20;99.90
11617;DHT22;5864;52.998;9.068;2023-07-31T01:53:48;16.20;99.90
11617;DHT22;5864;52.998;9.068;2023-07-31T01:56:33;16.20;99.90
11617;DHT22;5864;52.998;9.068;2023-07-31T01:59:19;16.20;99.90
11617;DHT22;5864;52.998;9.068;2023-07-31T02:02:07;16.20;99.90
11617;DHT22;5864;52.998;9.068;2023-07-31T02:04:52;16.20;99.90
11617;DHT22;5864;52.998;9.068;2023-07-31T02:07:38;16.30;99.90
11617;DHT22;5864;52.998;9.068;2023-07-31T02:10:23;16.20;99.90
11617;DHT22;5864;52.998;9.068;2023-07-31T02:13:09;16.10;99.90
11617;DHT22;5864;52.998;9.068;2023-07-31T02:15:55;16.20;99.90
11617;DHT22;5864;52.998;9.068;2023-07-31T02:18:43;16.20;99.90
11617;DHT22;5864;52.998;9.068;2023-07-31T02:21:28;16.10;99.90
11617;DHT22;5864;52.998;9.068;2023-07-31T02:24:14;16.10;99.90
11617;DHT22;5864;52.998;9.068;2023-07-31T02:27:00;16.00;99.90
11617;DHT22;5864;52.998;9.068;2023-07-31T02:29:46;16.10;99.90
11617;DHT22;5864;52.998;9.068;2023-07-31T02:32:31;16.00;99.90
11617;DHT22;5864;52.998;9.068;2023-07-31T02:35:18;16.00;99.90
11617;DHT22;5864;52.998;9.068;2023-07-31T02:38:04;16.00;99.90
11617;DHT22;5864;52.998;9.068;2023-07-31T02:40:50;16.00;99.90
11617;DHT22;5864;52.998;9.068;2023-07-31T02:43:35;16.00;99.90
11617;DHT22;5864;52.998;9.068;2023-07-31T02:46:21;16.00;99.90
11617;DHT22;5864;52.998;9.068;2023-07-31T02:49:08;16.00;99.90
11617;DHT22;5864;52.998;9.068;2023-07-31T02:51:55;15.90;99.90
11617;DHT22;5864;52.998;9.068;2023-07-31T02:54:40;15.90;99.90
11617;DHT22;5864;52.998;9.068;2023-07-31T02:57:26;15.90;99.90
11617;DHT22;5864;52.998;9.068;2023-07-31T03:00:12;15.90;99.90
11617;DHT22;5864;52.998;9.068;2023-07-31T03:02:57;15.80;99.90
11617;DHT22;5864;52.998;9.068;2023-07-31T03:05:43;15.70;99.90
11617;DHT22;5864;52.998;9.068;2023-07-31T03:08:42;15.70;99.90
11617;DHT22;5864;52.998;9.068;2023-07-31T03:11:28;15.70;99.90
11617;DHT22;5864;52.998;9.068;2023-07-31T03:14:13;15.80;99.90
11617;DHT22;5864;52.998;9.068;2023-07-31T03:16:59;15.70;99.90
11617;DHT22;5864;52.998;9.068;2023-07-31T03:19:44;15.70;99.90
11617;DHT22;5864;52.998;9.068;2023-07-31T03:22:30;15.80;99.90
11617;DHT22;5864;52.998;9.068;2023-07-31T03:25:17;15.80;99.90
11617;DHT22;5864;52.998;9.068;2023-07-31T03:28:03;15.80;99.90
11617;DHT22;5864;52.998;9.068;2023-07-31T03:30:49;15.80;99.90
11617;DHT22;5864;52.998;9.068;2023-07-31T03:33:35;15.80;99.90
11617;DHT22;5864;52.998;9.068;2023-07-31T03:36:21;15.80;99.90
11617;DHT22;5864;52.998;9.068;2023-07-31T03:39:06;15.80;99.90
11617;DHT22;5864;52.998;9.068;2023-07-31T03:41:53;15.80;99.90
11617;DHT22;5864;52.998;9.068;2023-07-31T03:44:39;15.70;99.90
11617;DHT22;5864;52.998;9.068;2023-07-31T03:47:24;15.80;99.90
11617;DHT22;5864;52.998;9.068;2023-07-31T03:50:10;15.80;99.90
11617;DHT22;5864;52.998;9.068;2023-07-31T03:52:55;15.70;99.90
11617;DHT22;5864;52.998;9.068;2023-07-31T03:55:41;15.80;99.90
11617;DHT22;5864;52.998;9.068;2023-07-31T03:58:28;15.80;99.90
11617;DHT22;5864;52.998;9.068;2023-07-31T04:01:14;15.80;99.90
11617;DHT22;5864;52.998;9.068;2023-07-31T04:03:59;15.80;99.90
11617;DHT22;5864;52.998;9.068;2023-07-31T04:06:45;15.80;99.90
11617;DHT22;5864;52.998;9.068;2023-07-31T04:09:30;15.80;99.90
11617;DHT22;5864;52.998;9.068;2023-07-31T04:12:16;15.40;99.90
11617;DHT22;5864;52.998;9.068;2023-07-31T04:15:03;15.90;99.90
11617;DHT22;5864;52.998;9.068;2023-07-31T04:17:49;15.90;99.90
11617;DHT22;5864;52.998;9.068;2023-07-31T04:20:35;15.90;99.90
11617;DHT22;5864;52.998;9.068;2023-07-31T04:23:21;15.80;99.90
11617;DHT22;5864;52.998;9.068;2023-07-31T04:26:07;15.80;99.90
11617;DHT22;5864;52.998;9.068;2023-07-31T04:28:52;15.80;99.90
11617;DHT22;5864;52.998;9.068;2023-07-31T04:31:39;15.80;99.90
11617;DHT22;5864;52.998;9.068;2023-07-31T04:34:25;15.80;99.90
11617;DHT22;5864;52.998;9.068;2023-07-31T04:37:11;15.80;99.90
11617;DHT22;5864;52.998;9.068;2023-07-31T04:39:57;15.70;99.90
11617;DHT22;5864;52.998;9.068;2023-07-31T04:42:43;15.70;99.90
11617;DHT22;5864;52.998;9.068;2023-07-31T04:45:29;15.70;99.90
11617;DHT22;5864;52.998;9.068;2023-07-31T04:48:16;15.80;99.90
11617;DHT22;5864;52.998;9.068;2023-07-31T04:51:01;15.80;99.90
11617;DHT22;5864;52.998;9.068;2023-07-31T04:53:47;15.80;99.90
11617;DHT22;5864;52.998;9.068;2023-07-31T04:56:32;15.80;99.90
11617;DHT22;5864;52.998;9.068;2023-07-31T04:59:18;15.80;99.90
11617;DHT22;5864;52.998;9.068;2023-07-31T05:02:04;15.80;99.90
11617;DHT22;5864;52.998;9.068;2023-07-31T05:04:51;15.70;99.90
11617;DHT22;5864;52.998;9.068;2023-07-31T05:07:37;15.80;99.90
11617;DHT22;5864;52.998;9.068;2023-07-31T05:10:23;15.80;99.90
11617;DHT22;5864;52.998;9.068;2023-07-31T05:13:09;15.80;99.90
11617;DHT22;5864;52.998;9.068;2023-07-31T05:15:54;15.80;99.90
11617;DHT22;5864;52.998;9.068;2023-07-31T05:18:40;15.80;99.90
11617;DHT22;5864;52.998;9.068;2023-07-31T05:21:27;15.80;99.90
11617;DHT22;5864;52.998;9.068;2023-07-31T05:24:13;15.90;99.90
11617;DHT22;5864;52.998;9.068;2023-07-31T05:26:59;15.90;99.90
11617;DHT22;5864;52.998;9.068;2023-07-31T05:29:44;15.90;99.90
11617;DHT22;5864;52.998;9.068;2023-07-31T05:32:31;15.80;99.90
11617;DHT22;5864;52.998;9.068;2023-07-31T05:35:17;15.80;99.90
11617;DHT22;5864;52.998;9.068;2023-07-31T05:38:04;15.70;99.90
11617;DHT22;5864;52.998;9.068;2023-07-31T05:40:49;15.70;99.90
11617;DHT22;5864;52.998;9.068;2023-07-31T05:43:35;15.70;99.90
11617;DHT22;5864;52.998;9.068;2023-07-31T05:46:20;15.80;99.90
11617;DHT22;5864;52.998;9.068;2023-07-31T05:49:07;15.80;99.90
11617;DHT22;5864;52.998;9.068;2023-07-31T05:51:52;15.80;99.90
11617;DHT22;5864;52.998;9.068;2023-07-31T05:54:39;15.90;99.90
11617;DHT22;5864;52.998;9.068;2023-07-31T05:57:25;15.90;99.90
11617;DHT22;5864;52.998;9.068;2023-07-31T06:00:12;16.10;99.90
11617;DHT22;5864;52.998;9.068;2023-07-31T06:02:58;15.90;99.90
11617;DHT22;5864;52.998;9.068;2023-07-31T06:05:43;16.00;99.90
11617;DHT22;5864;52.998;9.068;2023-07-31T06:08:29;16.00;99.90
11617;DHT22;5864;52.998;9.068;2023-07-31T06:11:16;16.10;99.90
11617;DHT22;5864;52.998;9.068;2023-07-31T06:14:01;16.00;99.90
11617;DHT22;5864;52.998;9.068;2023-07-31T06:16:47;16.00;99.90
11617;DHT22;5864;52.998;9.068;2023-07-31T06:19:32;16.00;99.90
11617;DHT22;5864;52.998;9.068;2023-07-31T06:22:18;16.10;99.90
11617;DHT22;5864;52.998;9.068;2023-07-31T06:25:05;16.00;99.90
11617;DHT22;5864;52.998;9.068;2023-07-31T06:27:52;16.00;99.90
11617;DHT22;5864;52.998;9.068;2023-07-31T06:30:37;15.90;99.90
11617;DHT22;5864;52.998;9.068;2023-07-31T06:33:23;15.90;99.90
11617;DHT22;5864;52.998;9.068;2023-07-31T06:36:08;15.90;99.90
11617;DHT22;5864;52.998;9.068;2023-07-31T06:38:54;16.00;99.90
11617;DHT22;5864;52.998;9.068;2023-07-31T06:41:39;16.10;99.90
11617;DHT22;5864;52.998;9.068;2023-07-31T06:44:26;16.00;99.90
11617;DHT22;5864;52.998;9.068;2023-07-31T06:47:12;16.00;99.90
11617;DHT22;5864;52.998;9.068;2023-07-31T06:49:57;16.10;99.90
11617;DHT22;5864;52.998;9.068;2023-07-31T06:52:43;16.10;99.90
11617;DHT22;5864;52.998;9.068;2023-07-31T06:55:28;16.10;99.90
11617;DHT22;5864;52.998;9.068;2023-07-31T06:58:14;16.10;99.90
11617;DHT22;5864;52.998;9.068;2023-07-31T07:01:01;16.20;99.90
11617;DHT22;5864;52.998;9.068;2023-07-31T07:03:47;16.20;99.90
11617;DHT22;5864;52.998;9.068;2023-07-31T07:06:34;16.20;99.90
11617;DHT22;5864;52.998;9.068;2023-07-31T07:09:20;16.20;99.90
11617;DHT22;5864;52.998;9.068;2023-07-31T07:12:06;16.20;99.90
11617;DHT22;5864;52.998;9.068;2023-07-31T07:14:52;16.40;99.90
11617;DHT22;5864;52.998;9.068;2023-07-31T07:17:39;16.30;99.90
11617;DHT22;5864;52.998;9.068;2023-07-31T07:20:24;16.40;99.90
11617;DHT22;5864;52.998;9.068;2023-07-31T07:23:10;16.40;99.90
11617;DHT22;5864;52.998;9.068;2023-07-31T07:25:55;16.50;99.90
11617;DHT22;5864;52.998;9.068;2023-07-31T07:28:41;16.50;99.90
11617;DHT22;5864;52.998;9.068;2023-07-31T07:31:26;16.50;99.90
11617;DHT22;5864;52.998;9.068;2023-07-31T07:34:13;16.50;99.90
11617;DHT22;5864;52.998;9.068;2023-07-31T07:36:59;16.50;99.90
11617;DHT22;5864;52.998;9.068;2023-07-31T07:39:44;16.50;99.90
11617;DHT22;5864;52.998;9.068;2023-07-31T07:42:30;16.50;99.90
11617;DHT22;5864;52.998;9.068;2023-07-31T07:45:16;16.60;99.90
11617;DHT22;5864;52.998;9.068;2023-07-31T07:48:01;16.60;99.90
11617;DHT22;5864;52.998;9.068;2023-07-31T07:50:48;16.60;99.90
11617;DHT22;5864;52.998;9.068;2023-07-31T07:53:34;16.70;99.90
11617;DHT22;5864;52.998;9.068;2023-07-31T07:56:20;16.80;99.90
11617;DHT22;5864;52.998;9.068;2023-07-31T07:59:06;16.80;99.90
11617;DHT22;5864;52.998;9.068;2023-07-31T08:01:52;16.80;99.90
11617;DHT22;5864;52.998;9.068;2023-07-31T08:04:37;16.80;99.90
11617;DHT22;5864;52.998;9.068;2023-07-31T08:07:24;16.80;99.90
11617;DHT22;5864;52.998;9.068;2023-07-31T08:10:10;16.80;99.90
11617;DHT22;5864;52.998;9.068;2023-07-31T08:12:56;16.80;99.90
11617;DHT22;5864;52.998;9.068;2023-07-31T08:15:42;16.80;99.90
11617;DHT22;5864;52.998;9.068;2023-07-31T08:18:28;16.90;99.90
11617;DHT22;5864;52.998;9.068;2023-07-31T08:21:13;16.90;99.90
11617;DHT22;5864;52.998;9.068;2023-07-31T08:24:00;16.90;99.90
11617;DHT22;5864;52.998;9.068;2023-07-31T08:26:47;16.90;99.90
11617;DHT22;5864;52.998;9.068;2023-07-31T08:29:33;16.90;99.90
11617;DHT22;5864;52.998;9.068;2023-07-31T08:32:18;17.10;99.90
11617;DHT22;5864;52.998;9.068;2023-07-31T08:35:04;17.10;99.90
11617;DHT22;5864;52.998;9.068;2023-07-31T08:37:50;17.20;99.90
11617;DHT22;5864;52.998;9.068;2023-07-31T08:40:37;17.30;99.90
11617;DHT22;5864;52.998;9.068;2023-07-31T08:43:25;17.40;99.90
11617;DHT22;5864;52.998;9.068;2023-07-31T08:46:11;17.60;99.90
11617;DHT22;5864;52.998;9.068;2023-07-31T08:48:58;17.60;99.90
11617;DHT22;5864;52.998;9.068;2023-07-31T08:51:46;17.60;99.90
11617;DHT22;5864;52.998;9.068;2023-07-31T08:54:35;17.70;99.90
11617;DHT22;5864;52.998;9.068;2023-07-31T08:57:22;17.70;99.90
11617;DHT22;5864;52.998;9.068;2023-07-31T09:00:10;17.80;99.90
11617;DHT22;5864;52.998;9.068;2023-07-31T09:02:59;17.90;99.90
11617;DHT22;5864;52.998;9.068;2023-07-31T09:05:47;18.00;99.90
11617;DHT22;5864;52.998;9.068;2023-07-31T09:08:32;17.90;99.90
11617;DHT22;5864;52.998;9.068;2023-07-31T09:11:17;18.00;99.90
11617;DHT22;5864;52.998;9.068;2023-07-31T09:14:08;18.00;99.90
11617;DHT22;5864;52.998;9.068;2023-07-31T09:16:54;18.10;99.90
11617;DHT22;5864;52.998;9.068;2023-07-31T09:19:40;18.20;99.90
11617;DHT22;5864;52.998;9.068;2023-07-31T09:22:32;18.30;99.90
11617;DHT22;5864;52.998;9.068;2023-07-31T09:25:19;18.30;99.90
11617;DHT22;5864;52.998;9.068;2023-07-31T09:28:07;18.30;99.90
11617;DHT22;5864;52.998;9.068;2023-07-31T09:30:54;18.40;99.90
11617;DHT22;5864;52.998;9.068;2023-07-31T09:33:54;18.30;99.90
11617;DHT22;5864;52.998;9.068;2023-07-31T09:36:41;18.10;99.90
11617;DHT22;5864;52.998;9.068;2023-07-31T09:39:27;18.10;99.90
11617;DHT22;5864;52.998;9.068;2023-07-31T09:42:24;18.10;99.90
11617;DHT22;5864;52.998;9.068;2023-07-31T09:45:11;17.90;99.90
11617;DHT22;5864;52.998;9.068;2023-07-31T09:47:58;18.00;99.90
11617;DHT22;5864;52.998;9.068;2023-07-31T09:50:45;18.00;99.90
11617;DHT22;5864;52.998;9.068;2023-07-31T09:53:31;18.00;99.90
11617;DHT22;5864;52.998;9.068;2023-07-31T09:56:18;18.10;99.90
11617;DHT22;5864;52.998;9.068;2023-07-31T09:59:05;18.10;99.90
11617;DHT22;5864;52.998;9.068;2023-07-31T10:01:52;18.10;99.90
11617;DHT22;5864;52.998;9.068;2023-07-31T10:04:40;18.00;99.90
11617;DHT22;5864;52.998;9.068;2023-07-31T10:07:29;18.10;99.90
11617;DHT22;5864;52.998;9.068;2023-07-31T10:10:15;18.00;99.90
11617;DHT22;5864;52.998;9.068;2023-07-31T10:13:02;18.20;99.90
11617;DHT22;5864;52.998;9.068;2023-07-31T10:15:48;18.20;99.90
11617;DHT22;5864;52.998;9.068;2023-07-31T10:18:35;18.30;99.90
11617;DHT22;5864;52.998;9.068;2023-07-31T10:21:22;18.30;99.90
11617;DHT22;5864;52.998;9.068;2023-07-31T10:24:08;18.30;99.90
11617;DHT22;5864;52.998;9.068;2023-07-31T10:26:56;18.20;99.90
11617;DHT22;5864;52.998;9.068;2023-07-31T10:29:43;18.20;99.90
11617;DHT22;5864;52.998;9.068;2023-07-31T10:32:32;18.30;99.90
11617;DHT22;5864;52.998;9.068;2023-07-31T10:35:19;18.40;99.90
11617;DHT22;5864;52.998;9.068;2023-07-31T10:38:11;18.30;99.90
11617;DHT22;5864;52.998;9.068;2023-07-31T10:41:08;18.40;99.90
11617;DHT22;5864;52.998;9.068;2023-07-31T10:43:56;18.50;99.90
11617;DHT22;5864;52.998;9.068;2023-07-31T10:46:42;18.50;99.90
11617;DHT22;5864;52.998;9.068;2023-07-31T10:49:29;18.50;99.90
11617;DHT22;5864;52.998;9.068;2023-07-31T10:52:20;18.60;99.90
11617;DHT22;5864;52.998;9.068;2023-07-31T10:55:27;18.50;99.90
11617;DHT22;5864;52.998;9.068;2023-07-31T10:58:14;18.60;99.90
11617;DHT22;5864;52.998;9.068;2023-07-31T11:01:04;18.60;99.90
11617;DHT22;5864;52.998;9.068;2023-07-31T11:03:50;18.50;99.90
11617;DHT22;5864;52.998;9.068;2023-07-31T11:06:36;18.60;99.90
11617;DHT22;5864;52.998;9.068;2023-07-31T11:09:22;18.60;99.90
11617;DHT22;5864;52.998;9.068;2023-07-31T11:12:09;18.60;99.90
11617;DHT22;5864;52.998;9.068;2023-07-31T11:14:57;18.60;99.90
11617;DHT22;5864;52.998;9.068;2023-07-31T11:17:42;18.70;99.90
11617;DHT22;5864;52.998;9.068;2023-07-31T11:20:29;18.80;99.90
11617;DHT22;5864;52.998;9.068;2023-07-31T11:23:17;19.10;99.90
11617;DHT22;5864;52.998;9.068;2023-07-31T11:26:05;19.10;99.90
11617;DHT22;5864;52.998;9.068;2023-07-31T11:28:52;19.10;99.90
11617;DHT22;5864;52.998;9.068;2023-07-31T11:31:42;19.10;99.90
11617;DHT22;5864;52.998;9.068;2023-07-31T11:34:27;19.00;99.90
11617;DHT22;5864;52.998;9.068;2023-07-31T11:37:13;19.00;99.90
11617;DHT22;5864;52.998;9.068;2023-07-31T11:39:59;19.00;99.90
11617;DHT22;5864;52.998;9.068;2023-07-31T11:42:45;19.00;99.90
11617;DHT22;5864;52.998;9.068;2023-07-31T11:45:33;18.90;99.90
11617;DHT22;5864;52.998;9.068;2023-07-31T11:48:20;19.00;99.90
11617;DHT22;5864;52.998;9.068;2023-07-31T11:51:08;18.90;99.90
11617;DHT22;5864;52.998;9.068;2023-07-31T11:53:58;18.80;99.90
11617;DHT22;5864;52.998;9.068;2023-07-31T11:56:44;18.80;99.90
11617;DHT22;5864;52.998;9.068;2023-07-31T11:59:30;18.80;99.90
11617;DHT22;5864;52.998;9.068;2023-07-31T12:02:18;18.80;99.90
11617;DHT22;5864;52.998;9.068;2023-07-31T12:05:04;18.90;99.90
11617;DHT22;5864;52.998;9.068;2023-07-31T12:07:51;19.00;99.90
11617;DHT22;5864;52.998;9.068;2023-07-31T12:10:38;19.00;99.90
11617;DHT22;5864;52.998;9.068;2023-07-31T12:13:25;19.00;99.90
11617;DHT22;5864;52.998;9.068;2023-07-31T12:16:11;19.10;99.90
11617;DHT22;5864;52.998;9.068;2023-07-31T12:18:58;19.20;99.90
11617;DHT22;5864;52.998;9.068;2023-07-31T12:21:44;19.30;99.90
11617;DHT22;5864;52.998;9.068;2023-07-31T12:24:30;19.40;99.90
11617;DHT22;5864;52.998;9.068;2023-07-31T12:27:15;19.30;99.90
11617;DHT22;5864;52.998;9.068;2023-07-31T12:30:02;19.20;99.90
11617;DHT22;5864;52.998;9.068;2023-07-31T12:32:49;19.20;99.90
11617;DHT22;5864;52.998;9.068;2023-07-31T12:35:37;19.20;99.90
11617;DHT22;5864;52.998;9.068;2023-07-31T12:38:23;19.20;99.90
11617;DHT22;5864;52.998;9.068;2023-07-31T12:41:09;19.20;99.90
11617;DHT22;5864;52.998;9.068;2023-07-31T12:43:55;19.20;99.90
11617;DHT22;5864;52.998;9.068;2023-07-31T12:46:41;19.30;99.90
11617;DHT22;5864;52.998;9.068;2023-07-31T12:49:27;19.20;99.90
11617;DHT22;5864;52.998;9.068;2023-07-31T12:52:13;19.20;99.90
11617;DHT22;5864;52.998;9.068;2023-07-31T12:54:59;19.20;99.90
11617;DHT22;5864;52.998;9.068;2023-07-31T12:57:45;19.40;99.90
11617;DHT22;5864;52.998;9.068;2023-07-31T13:00:30;19.40;99.90
11617;DHT22;5864;52.998;9.068;2023-07-31T13:03:16;19.40;99.90
11617;DHT22;5864;52.998;9.068;2023-07-31T13:06:01;19.30;99.90
11617;DHT22;5864;52.998;9.068;2023-07-31T13:08:48;19.30;99.90
11617;DHT22;5864;52.998;9.068;2023-07-31T13:11:34;19.20;99.90
11617;DHT22;5864;52.998;9.068;2023-07-31T13:14:19;19.30;99.90
11617;DHT22;5864;52.998;9.068;2023-07-31T13:17:05;19.30;99.90
11617;DHT22;5864;52.998;9.068;2023-07-31T13:19:51;19.40;99.90
11617;DHT22;5864;52.998;9.068;2023-07-31T13:22:36;19.50;99.90
11617;DHT22;5864;52.998;9.068;2023-07-31T13:25:23;19.50;99.90
11617;DHT22;5864;52.998;9.068;2023-07-31T13:28:08;19.40;99.90
11617;DHT22;5864;52.998;9.068;2023-07-31T13:30:54;19.40;99.90
11617;DHT22;5864;52.998;9.068;2023-07-31T13:33:40;19.40;99.90
11617;DHT22;5864;52.998;9.068;2023-07-31T13:36:25;19.40;99.90
11617;DHT22;5864;52.998;9.068;2023-07-31T13:39:11;19.50;99.90
11617;DHT22;5864;52.998;9.068;2023-07-31T13:41:59;19.60;99.90
11617;DHT22;5864;52.998;9.068;2023-07-31T13:44:44;19.50;99.90
11617;DHT22;5864;52.998;9.068;2023-07-31T13:47:30;19.30;99.90
11617;DHT22;5864;52.998;9.068;2023-07-31T13:50:16;19.40;99.90
11617;DHT22;5864;52.998;9.068;2023-07-31T13:53:04;19.30;99.90
11617;DHT22;5864;52.998;9.068;2023-07-31T13:55:49;19.30;99.90
11617;DHT22;5864;52.998;9.068;2023-07-31T13:58:36;19.40;99.90
11617;DHT22;5864;52.998;9.068;2023-07-31T14:01:22;19.40;99.90
11617;DHT22;5864;52.998;9.068;2023-07-31T14:04:08;19.40;99.90
11617;DHT22;5864;52.998;9.068;2023-07-31T14:06:54;19.30;99.90
11617;DHT22;5864;52.998;9.068;2023-07-31T14:09:40;19.30;99.90
11617;DHT22;5864;52.998;9.068;2023-07-31T14:12:26;19.20;99.90
11617;DHT22;5864;52.998;9.068;2023-07-31T14:15:13;19.20;99.90
11617;DHT22;5864;52.998;9.068;2023-07-31T14:17:58;19.20;99.90
11617;DHT22;5864;52.998;9.068;2023-07-31T14:20:44;19.10;99.90
11617;DHT22;5864;52.998;9.068;2023-07-31T14:23:29;19.10;99.90
11617;DHT22;5864;52.998;9.068;2023-07-31T14:26:15;19.20;99.90
11617;DHT22;5864;52.998;9.068;2023-07-31T14:29:01;19.10;99.90
11617;DHT22;5864;52.998;9.068;2023-07-31T14:31:48;19.10;99.90
11617;DHT22;5864;52.998;9.068;2023-07-31T14:34:33;19.10;99.90
11617;DHT22;5864;52.998;9.068;2023-07-31T14:37:19;19.10;99.90
11617;DHT22;5864;52.998;9.068;2023-07-31T14:40:06;19.10;99.90
11617;DHT22;5864;52.998;9.068;2023-07-31T14:42:52;19.20;99.90
11617;DHT22;5864;52.998;9.068;2023-07-31T14:45:37;19.30;99.90
11617;DHT22;5864;52.998;9.068;2023-07-31T14:48:24;19.40;99.90
11617;DHT22;5864;52.998;9.068;2023-07-31T14:51:10;19.60;99.90
11617;DHT22;5864;52.998;9.068;2023-07-31T14:53:55;19.60;99.90
11617;DHT22;5864;52.998;9.068;2023-07-31T14:56:41;19.60;99.90
11617;DHT22;5864;52.998;9.068;2023-07-31T14:59:27;19.60;99.90
11617;DHT22;5864;52.998;9.068;2023-07-31T15:02:15;19.70;99.90
11617;DHT22;5864;52.998;9.068;2023-07-31T15:05:02;19.60;99.90
11617;DHT22;5864;52.998;9.068;2023-07-31T15:07:48;19.60;99.90
11617;DHT22;5864;52.998;9.068;2023-07-31T15:10:33;19.60;99.90
11617;DHT22;5864;52.998;9.068;2023-07-31T15:13:19;19.50;99.90
11617;DHT22;5864;52.998;9.068;2023-07-31T15:16:05;19.50;99.90
11617;DHT22;5864;52.998;9.068;2023-07-31T15:18:50;19.50;99.90
11617;DHT22;5864;52.998;9.068;2023-07-31T15:21:38;19.40;99.90
11617;DHT22;5864;52.998;9.068;2023-07-31T15:24:23;19.50;99.90
11617;DHT22;5864;52.998;9.068;2023-07-31T15:27:10;19.50;99.90
11617;DHT22;5864;52.998;9.068;2023-07-31T15:29:56;19.30;99.90
11617;DHT22;5864;52.998;9.068;2023-07-31T15:32:42;19.20;99.90
11617;DHT22;5864;52.998;9.068;2023-07-31T15:35:32;19.20;99.90
11617;DHT22;5864;52.998;9.068;2023-07-31T15:38:19;19.20;99.90
11617;DHT22;5864;52.998;9.068;2023-07-31T15:41:05;19.20;99.90
11617;DHT22;5864;52.998;9.068;2023-07-31T15:43:51;19.10;99.90
11617;DHT22;5864;52.998;9.068;2023-07-31T15:46:36;19.10;99.90
11617;DHT22;5864;52.998;9.068;2023-07-31T15:49:22;19.10;99.90
11617;DHT22;5864;52.998;9.068;2023-07-31T15:52:07;19.10;99.90
11617;DHT22;5864;52.998;9.068;2023-07-31T15:54:54;19.10;99.90
11617;DHT22;5864;52.998;9.068;2023-07-31T15:57:39;19.20;99.90
11617;DHT22;5864;52.998;9.068;2023-07-31T16:00:25;19.20;99.90
11617;DHT22;5864;52.998;9.068;2023-07-31T16:03:11;19.20;99.90
11617;DHT22;5864;52.998;9.068;2023-07-31T16:05:56;19.30;99.90
11617;DHT22;5864;52.998;9.068;2023-07-31T16:08:42;19.20;99.90
11617;DHT22;5864;52.998;9.068;2023-07-31T16:11:29;19.20;99.90
11617;DHT22;5864;52.998;9.068;2023-07-31T16:14:14;19.30;99.90
11617;DHT22;5864;52.998;9.068;2023-07-31T16:17:00;19.30;99.90
11617;DHT22;5864;52.998;9.068;2023-07-31T16:19:45;19.30;99.90
11617;DHT22;5864;52.998;9.068;2023-07-31T16:22:31;19.20;99.90
11617;DHT22;5864;52.998;9.068;2023-07-31T16:25:17;19.20;99.90
11617;DHT22;5864;52.998;9.068;2023-07-31T16:28:03;19.30;99.90
11617;DHT22;5864;52.998;9.068;2023-07-31T16:30:50;19.30;99.90
11617;DHT22;5864;52.998;9.068;2023-07-31T16:33:35;19.40;99.90
11617;DHT22;5864;52.998;9.068;2023-07-31T16:36:21;19.40;99.90
11617;DHT22;5864;52.998;9.068;2023-07-31T16:39:07;19.50;99.90
11617;DHT22;5864;52.998;9.068;2023-07-31T16:41:53;19.50;99.90
11617;DHT22;5864;52.998;9.068;2023-07-31T16:44:40;19.40;99.90
11617;DHT22;5864;52.998;9.068;2023-07-31T16:47:25;19.40;99.90
11617;DHT22;5864;52.998;9.068;2023-07-31T16:50:11;19.30;99.90
11617;DHT22;5864;52.998;9.068;2023-07-31T16:52:56;19.40;99.90
11617;DHT22;5864;52.998;9.068;2023-07-31T16:55:42;19.40;99.90
11617;DHT22;5864;52.998;9.068;2023-07-31T16:58:27;19.40;99.90
11617;DHT22;5864;52.998;9.068;2023-07-31T17:01:15;19.40;99.90
11617;DHT22;5864;52.998;9.068;2023-07-31T17:04:00;19.40;99.90
11617;DHT22;5864;52.998;9.068;2023-07-31T17:06:46;19.40;99.90
11617;DHT22;5864;52.998;9.068;2023-07-31T17:09:31;19.40;99.90
11617;DHT22;5864;52.998;9.068;2023-07-31T17:12:17;19.40;99.90
11617;DHT22;5864;52.998;9.068;2023-07-31T17:15:03;19.30;99.90
11617;DHT22;5864;52.998;9.068;2023-07-31T17:17:52;19.20;99.90
11617;DHT22;5864;52.998;9.068;2023-07-31T17:20:38;19.10;99.90
11617;DHT22;5864;52.998;9.068;2023-07-31T17:23:25;19.10;99.90
11617;DHT22;5864;52.998;9.068;2023-07-31T17:26:11;19.10;99.90
11617;DHT22;5864;52.998;9.068;2023-07-31T17:28:57;19.10;99.90
11617;DHT22;5864;52.998;9.068;2023-07-31T17:31:43;19.20;99.90
11617;DHT22;5864;52.998;9.068;2023-07-31T17:34:31;19.10;99.90
11617;DHT22;5864;52.998;9.068;2023-07-31T17:37:17;19.10;99.90
11617;DHT22;5864;52.998;9.068;2023-07-31T17:40:03;19.10;99.90
11617;DHT22;5864;52.998;9.068;2023-07-31T17:42:49;19.00;99.90
11617;DHT22;5864;52.998;9.068;2023-07-31T17:45:35;19.00;99.90
11617;DHT22;5864;52.998;9.068;2023-07-31T17:48:21;19.10;99.90
11617;DHT22;5864;52.998;9.068;2023-07-31T17:51:09;19.10;99.90